createdAt,value
2019-03-18T00:00:12.100Z,0.40
2019-03-18T00:01:12.064Z,0.40
2019-03-18T00:02:12.084Z,0.40
2019-03-18T00:03:12.053Z,0.40
2019-03-18T00:04:12.027Z,0.40
2019-03-18T00:05:12.033Z,0.30
2019-03-18T00:06:12.194Z,0.30
2019-03-18T00:07:12.011Z,0.40
2019-03-18T00:08:11.980Z,0.40
2019-03-18T00:09:11.991Z,0.50
2019-03-18T00:10:11.959Z,0.30
2019-03-18T00:11:11.948Z,0.40
2019-03-18T00:12:11.936Z,0.30
2019-03-18T00:13:11.927Z,0.50
2019-03-18T00:14:11.919Z,0.50
2019-03-18T00:15:11.898Z,0.40
2019-03-18T00:16:11.915Z,0.40
2019-03-18T00:17:11.889Z,0.30
2019-03-18T00:18:11.892Z,0.30
2019-03-18T00:19:11.869Z,0.40
2019-03-18T00:20:11.858Z,0.40
2019-03-18T00:21:11.850Z,0.40
2019-03-18T00:22:11.838Z,0.30
2019-03-18T00:23:11.854Z,0.50
2019-03-18T00:24:11.825Z,0.40
2019-03-18T00:25:11.793Z,0.30
2019-03-18T00:26:11.809Z,0.40
2019-03-18T00:27:11.811Z,0.40
2019-03-18T00:28:11.790Z,0.40
2019-03-18T00:29:11.759Z,0.40
2019-03-18T00:30:11.760Z,0.50
2019-03-18T00:31:11.740Z,0.40
2019-03-18T00:32:11.726Z,0.30
2019-03-18T00:33:11.717Z,0.40
2019-03-18T00:34:11.702Z,0.40
2019-03-18T00:35:11.685Z,0.50
2019-03-18T00:36:11.704Z,0.40
2019-03-18T00:37:11.713Z,0.40
2019-03-18T00:38:11.669Z,0.40
2019-03-18T00:39:11.645Z,0.40
2019-03-18T00:40:11.639Z,0.40
2019-03-18T00:41:11.637Z,0.40
2019-03-18T00:42:11.618Z,0.40
2019-03-18T00:43:11.605Z,0.40
2019-03-18T00:44:11.594Z,0.40
2019-03-18T00:45:15.029Z,0.40
2019-03-18T00:46:11.691Z,0.50
2019-03-18T00:47:11.558Z,0.40
2019-03-18T00:48:11.569Z,0.50
2019-03-18T00:49:11.539Z,0.40
2019-03-18T00:50:11.527Z,0.40
2019-03-18T00:51:11.535Z,0.40
2019-03-18T00:52:11.500Z,0.50
2019-03-18T00:53:11.513Z,0.40
2019-03-18T00:54:11.490Z,0.40
2019-03-18T00:55:11.467Z,0.40
2019-03-18T00:56:11.467Z,0.40
2019-03-18T00:57:11.447Z,0.40
2019-03-18T00:58:11.449Z,0.30
2019-03-18T00:59:11.435Z,0.40
2019-03-18T01:00:11.423Z,0.40
2019-03-18T01:01:11.396Z,0.40
2019-03-18T01:02:11.397Z,0.30
2019-03-18T01:03:11.389Z,0.40
2019-03-18T01:04:11.412Z,0.40
2019-03-18T01:05:11.366Z,0.40
2019-03-18T01:06:11.345Z,0.40
2019-03-18T01:07:11.348Z,0.30
2019-03-18T01:08:11.340Z,0.30
2019-03-18T01:09:11.335Z,0.40
2019-03-18T01:10:11.316Z,0.40
2019-03-18T01:11:11.284Z,0.40
2019-03-18T01:12:11.306Z,0.40
2019-03-18T01:13:11.295Z,0.40
2019-03-18T01:14:11.280Z,0.40
2019-03-18T01:15:11.248Z,0.40
2019-03-18T01:16:11.284Z,0.30
2019-03-18T01:17:11.242Z,0.50
2019-03-18T01:18:11.245Z,0.40
2019-03-18T01:19:11.200Z,0.50
2019-03-18T01:20:11.207Z,0.40
2019-03-18T01:21:11.177Z,0.30
2019-03-18T01:22:11.241Z,0.40
2019-03-18T01:23:11.165Z,0.40
2019-03-18T01:24:11.222Z,0.50
2019-03-18T01:25:11.177Z,0.40
2019-03-18T01:26:11.134Z,0.40
2019-03-18T01:27:11.114Z,0.40
2019-03-18T01:28:11.121Z,0.30
2019-03-18T01:29:11.122Z,0.40
2019-03-18T01:30:11.093Z,0.40
2019-03-18T01:31:11.090Z,0.40
2019-03-18T01:32:11.060Z,0.40
2019-03-18T01:33:11.107Z,0.40
2019-03-18T01:34:11.041Z,0.40
2019-03-18T01:35:11.039Z,0.40
2019-03-18T01:36:11.038Z,0.40
2019-03-18T01:37:11.022Z,0.40
2019-03-18T01:38:11.002Z,0.40
2019-03-18T01:39:10.994Z,0.40
2019-03-18T01:40:10.981Z,0.40
2019-03-18T01:41:10.955Z,0.50
2019-03-18T01:42:10.943Z,0.50
2019-03-18T01:43:10.958Z,0.40
2019-03-18T01:44:10.941Z,0.40
2019-03-18T01:45:10.906Z,0.40
2019-03-18T01:46:10.918Z,0.60
2019-03-18T01:47:10.888Z,0.40
2019-03-18T01:48:10.888Z,0.40
2019-03-18T01:49:10.882Z,0.50
2019-03-18T01:50:11.030Z,0.30
2019-03-18T01:51:10.844Z,0.60
2019-03-18T01:52:10.841Z,0.40
2019-03-18T01:53:10.826Z,0.50
2019-03-18T01:54:10.826Z,0.40
2019-03-18T01:55:10.827Z,0.30
2019-03-18T01:56:10.784Z,0.30
2019-03-18T01:57:10.788Z,0.40
2019-03-18T01:58:10.765Z,0.50
2019-03-18T01:59:10.777Z,0.70
2019-03-18T02:00:10.824Z,0.30
2019-03-18T02:01:10.764Z,0.40
2019-03-18T02:02:10.727Z,0.50
2019-03-18T02:03:10.735Z,0.40
2019-03-18T02:04:10.737Z,0.50
2019-03-18T02:05:10.707Z,0.40
2019-03-18T02:06:10.685Z,0.50
2019-03-18T02:07:10.713Z,0.50
2019-03-18T02:08:10.656Z,0.40
2019-03-18T02:09:10.695Z,0.40
2019-03-18T02:10:10.652Z,0.40
2019-03-18T02:11:10.631Z,0.40
2019-03-18T02:12:10.627Z,0.40
2019-03-18T02:13:10.614Z,0.30
2019-03-18T02:14:10.607Z,0.40
2019-03-18T02:15:10.587Z,0.40
2019-03-18T02:16:10.659Z,0.40
2019-03-18T02:17:10.566Z,0.50
2019-03-18T02:18:10.565Z,0.40
2019-03-18T02:19:10.605Z,0.40
2019-03-18T02:20:10.537Z,0.40
2019-03-18T02:21:10.560Z,0.50
2019-03-18T02:22:10.515Z,0.40
2019-03-18T02:23:10.505Z,0.50
2019-03-18T02:24:10.510Z,0.50
2019-03-18T02:25:10.484Z,0.40
2019-03-18T02:26:10.516Z,0.40
2019-03-18T02:27:10.478Z,0.40
2019-03-18T02:28:10.448Z,0.70
2019-03-18T02:29:10.487Z,0.40
2019-03-18T02:30:10.420Z,0.50
2019-03-18T02:31:10.430Z,0.50
2019-03-18T02:32:10.415Z,0.40
2019-03-18T02:33:10.394Z,0.40
2019-03-18T02:34:10.455Z,0.40
2019-03-18T02:35:10.451Z,0.50
2019-03-18T02:36:10.426Z,0.40
2019-03-18T02:37:10.443Z,0.50
2019-03-18T02:38:10.344Z,0.40
2019-03-18T02:39:10.339Z,0.50
2019-03-18T02:40:10.331Z,0.50
2019-03-18T02:41:10.328Z,0.40
2019-03-18T02:42:10.298Z,0.40
2019-03-18T02:43:10.284Z,0.40
2019-03-18T02:44:10.299Z,0.50
2019-03-18T02:45:10.292Z,0.40
2019-03-18T02:46:11.005Z,0.50
2019-03-18T02:47:10.241Z,0.40
2019-03-18T02:48:10.248Z,0.30
2019-03-18T02:49:10.240Z,0.40
2019-03-18T02:50:10.232Z,0.60
2019-03-18T02:51:10.369Z,0.50
2019-03-18T02:52:10.206Z,0.50
2019-03-18T02:53:10.174Z,0.40
2019-03-18T02:54:10.175Z,0.40
2019-03-18T02:55:10.163Z,0.40
2019-03-18T02:56:10.147Z,0.50
2019-03-18T02:57:10.157Z,0.30
2019-03-18T02:58:10.146Z,0.40
2019-03-18T02:59:10.122Z,0.40
2019-03-18T03:00:10.100Z,0.50
2019-03-18T03:01:10.112Z,0.30
2019-03-18T03:02:10.080Z,0.50
2019-03-18T03:03:10.063Z,0.30
2019-03-18T03:04:10.082Z,0.40
2019-03-18T03:05:10.058Z,0.40
2019-03-18T03:06:10.050Z,0.30
2019-03-18T03:07:10.031Z,0.40
2019-03-18T03:08:10.009Z,0.30
2019-03-18T03:09:10.004Z,0.30
2019-03-18T03:10:10.026Z,0.50
2019-03-18T03:11:09.993Z,0.60
2019-03-18T03:12:10.009Z,0.50
2019-03-18T03:13:09.957Z,0.40
2019-03-18T03:14:09.939Z,0.50
2019-03-18T03:15:09.979Z,0.40
2019-03-18T03:16:25.076Z,0.50
2019-03-18T03:17:09.941Z,0.50
2019-03-18T03:18:09.903Z,0.60
2019-03-18T03:19:09.923Z,0.40
2019-03-18T03:20:09.897Z,0.50
2019-03-18T03:21:09.877Z,0.50
2019-03-18T03:22:09.846Z,0.50
2019-03-18T03:23:09.842Z,0.50
2019-03-18T03:24:09.830Z,0.40
2019-03-18T03:25:09.858Z,0.40
2019-03-18T03:26:09.810Z,0.50
2019-03-18T03:27:09.819Z,0.30
2019-03-18T03:28:09.802Z,0.50
2019-03-18T03:29:09.774Z,0.40
2019-03-18T03:30:09.794Z,0.50
2019-03-18T03:31:09.777Z,0.50
2019-03-18T03:32:09.779Z,0.30
2019-03-18T03:33:09.731Z,0.40
2019-03-18T03:34:13.409Z,0.50
2019-03-18T03:35:09.800Z,0.40
2019-03-18T03:36:09.709Z,0.30
2019-03-18T03:37:09.700Z,0.60
2019-03-18T03:38:09.678Z,0.40
2019-03-18T03:39:09.663Z,0.50
2019-03-18T03:40:09.685Z,0.50
2019-03-18T03:41:09.655Z,0.50
2019-03-18T03:42:09.631Z,0.50
2019-03-18T03:43:09.633Z,0.40
2019-03-18T03:44:09.635Z,0.40
2019-03-18T03:45:09.623Z,0.50
2019-03-18T03:46:09.587Z,0.40
2019-03-18T03:47:09.582Z,0.50
2019-03-18T03:48:09.569Z,0.40
2019-03-18T03:49:09.559Z,0.60
2019-03-18T03:50:09.566Z,0.40
2019-03-18T03:51:09.557Z,0.40
2019-03-18T03:52:09.543Z,0.30
2019-03-18T03:53:09.525Z,0.40
2019-03-18T03:54:09.511Z,0.30
2019-03-18T03:55:09.505Z,0.40
2019-03-18T03:56:09.490Z,0.50
2019-03-18T03:57:09.466Z,0.40
2019-03-18T03:58:09.476Z,0.60
2019-03-18T03:59:09.465Z,0.30
2019-03-18T04:00:09.476Z,0.40
2019-03-18T04:01:09.437Z,0.40
2019-03-18T04:02:09.423Z,0.40
2019-03-18T04:03:09.405Z,0.50
2019-03-18T04:04:09.398Z,0.40
2019-03-18T04:05:09.398Z,0.30
2019-03-18T04:06:09.396Z,0.40
2019-03-18T04:07:09.409Z,0.50
2019-03-18T04:08:09.360Z,0.50
2019-03-18T04:09:09.347Z,0.40
2019-03-18T04:10:09.351Z,0.40
2019-03-18T04:11:09.338Z,0.40
2019-03-18T04:12:09.303Z,0.40
2019-03-18T04:13:09.301Z,0.40
2019-03-18T04:14:09.292Z,0.60
2019-03-18T04:15:09.299Z,0.40
2019-03-18T04:16:09.271Z,0.40
2019-03-18T04:17:09.254Z,0.40
2019-03-18T04:18:09.266Z,0.50
2019-03-18T04:19:09.247Z,0.50
2019-03-18T04:20:09.231Z,0.40
2019-03-18T04:21:09.215Z,0.50
2019-03-18T04:22:09.224Z,0.50
2019-03-18T04:23:09.193Z,0.40
2019-03-18T04:24:09.201Z,0.40
2019-03-18T04:25:09.217Z,0.50
2019-03-18T04:26:09.156Z,0.50
2019-03-18T04:27:09.539Z,0.40
2019-03-18T04:28:09.154Z,0.50
2019-03-18T04:29:09.142Z,0.30
2019-03-18T04:30:09.135Z,0.50
2019-03-18T04:31:09.120Z,0.30
2019-03-18T04:32:09.095Z,0.50
2019-03-18T04:33:09.097Z,0.40
2019-03-18T04:34:09.099Z,0.60
2019-03-18T04:35:09.075Z,0.30
2019-03-18T04:36:09.096Z,0.40
2019-03-18T04:37:09.065Z,0.50
2019-03-18T04:38:09.039Z,0.50
2019-03-18T04:39:09.013Z,0.30
2019-03-18T04:40:09.061Z,0.30
2019-03-18T04:41:09.005Z,0.40
2019-03-18T04:42:08.997Z,0.50
2019-03-18T04:43:08.974Z,0.40
2019-03-18T04:44:08.973Z,0.40
2019-03-18T04:45:08.978Z,0.50
2019-03-18T04:46:08.944Z,0.40
2019-03-18T04:47:14.131Z,0.60
2019-03-18T04:48:08.923Z,0.40
2019-03-18T04:49:08.910Z,0.40
2019-03-18T04:50:08.899Z,0.50
2019-03-18T04:51:08.913Z,0.50
2019-03-18T04:52:08.872Z,0.40
2019-03-18T04:53:08.867Z,0.40
2019-03-18T04:54:08.869Z,0.40
2019-03-18T04:55:08.866Z,0.50
2019-03-18T04:56:08.865Z,0.40
2019-03-18T04:57:08.846Z,0.40
2019-03-18T04:58:08.812Z,0.40
2019-03-18T04:59:08.866Z,0.60
2019-03-18T05:00:08.803Z,0.50
2019-03-18T05:01:08.862Z,0.40
2019-03-18T05:02:08.787Z,0.50
2019-03-18T05:03:08.765Z,0.50
2019-03-18T05:04:08.750Z,0.30
2019-03-18T05:05:08.753Z,0.30
2019-03-18T05:06:08.735Z,0.30
2019-03-18T05:07:08.768Z,0.30
2019-03-18T05:08:08.704Z,0.50
2019-03-18T05:09:08.693Z,0.40
2019-03-18T05:10:08.696Z,0.40
2019-03-18T05:11:08.695Z,0.60
2019-03-18T05:12:08.676Z,0.50
2019-03-18T05:13:08.650Z,0.30
2019-03-18T05:14:08.654Z,0.50
2019-03-18T05:15:08.629Z,0.40
2019-03-18T05:16:08.631Z,0.40
2019-03-18T05:17:08.619Z,0.40
2019-03-18T05:18:08.651Z,0.40
2019-03-18T05:19:08.594Z,0.60
2019-03-18T05:20:08.571Z,0.40
2019-03-18T05:21:08.578Z,0.50
2019-03-18T05:22:08.571Z,0.30
2019-03-18T05:23:08.578Z,0.40
2019-03-18T05:24:08.551Z,0.30
2019-03-18T05:25:08.519Z,0.50
2019-03-18T05:26:08.536Z,0.40
2019-03-18T05:27:08.501Z,0.40
2019-03-18T05:28:08.492Z,0.60
2019-03-18T05:29:08.736Z,0.60
2019-03-18T05:30:08.465Z,0.40
2019-03-18T05:31:08.460Z,0.40
2019-03-18T05:32:08.546Z,0.40
2019-03-18T05:33:08.438Z,0.50
2019-03-18T05:34:08.449Z,0.60
2019-03-18T05:35:08.425Z,0.40
2019-03-18T05:36:08.416Z,0.50
2019-03-18T05:37:08.423Z,0.50
2019-03-18T05:38:08.374Z,0.50
2019-03-18T05:39:08.369Z,0.40
2019-03-18T05:40:08.434Z,0.60
2019-03-18T05:41:08.352Z,0.40
2019-03-18T05:42:08.333Z,0.40
2019-03-18T05:43:08.352Z,0.50
2019-03-18T05:44:08.339Z,0.40
2019-03-18T05:45:08.304Z,0.40
2019-03-18T05:46:08.321Z,0.40
2019-03-18T05:47:08.292Z,0.50
2019-03-18T05:48:08.270Z,0.40
2019-03-18T05:49:08.459Z,0.40
2019-03-18T05:50:08.241Z,0.40
2019-03-18T05:51:08.261Z,0.50
2019-03-18T05:52:08.231Z,0.50
2019-03-18T05:53:08.227Z,0.40
2019-03-18T05:54:08.204Z,0.40
2019-03-18T05:55:08.308Z,0.40
2019-03-18T05:56:08.218Z,0.60
2019-03-18T05:57:08.209Z,0.30
2019-03-18T05:58:08.161Z,0.60
2019-03-18T05:59:08.205Z,0.50
2019-03-18T06:00:08.170Z,0.50
2019-03-18T06:01:08.164Z,0.40
2019-03-18T06:02:08.118Z,0.40
2019-03-18T06:03:08.165Z,0.50
2019-03-18T06:04:08.096Z,0.40
2019-03-18T06:05:08.107Z,0.50
2019-03-18T06:06:08.092Z,0.50
2019-03-18T06:07:08.063Z,0.40
2019-03-18T06:08:08.066Z,0.50
2019-03-18T06:09:08.036Z,0.40
2019-03-18T06:10:08.028Z,0.50
2019-03-18T06:11:08.013Z,0.50
2019-03-18T06:12:08.008Z,0.40
2019-03-18T06:13:07.999Z,0.40
2019-03-18T06:14:07.992Z,0.40
2019-03-18T06:15:08.021Z,0.50
2019-03-18T06:16:07.958Z,0.50
2019-03-18T06:17:07.953Z,0.40
2019-03-18T06:18:07.946Z,0.50
2019-03-18T06:19:07.971Z,0.50
2019-03-18T06:20:07.922Z,0.50
2019-03-18T06:21:07.901Z,0.40
2019-03-18T06:22:07.931Z,0.50
2019-03-18T06:23:07.907Z,0.60
2019-03-18T06:24:07.874Z,0.70
2019-03-18T06:25:07.884Z,0.90
2019-03-18T06:26:07.874Z,0.90
2019-03-18T06:27:07.846Z,0.80
2019-03-18T06:28:07.829Z,0.60
2019-03-18T06:29:07.882Z,0.50
2019-03-18T06:30:07.794Z,0.50
2019-03-18T06:31:07.832Z,0.70
2019-03-18T06:32:07.807Z,0.60
2019-03-18T06:33:07.771Z,0.80
2019-03-18T06:34:07.835Z,0.60
2019-03-18T06:35:07.747Z,0.70
2019-03-18T06:36:07.731Z,0.70
2019-03-18T06:37:07.752Z,0.50
2019-03-18T06:38:07.822Z,0.80
2019-03-18T06:39:07.980Z,0.80
2019-03-18T06:40:07.711Z,1.20
2019-03-18T06:41:07.706Z,0.90
2019-03-18T06:42:07.694Z,0.90
2019-03-18T06:43:07.654Z,1.00
2019-03-18T06:44:07.641Z,1.00
2019-03-18T06:45:07.645Z,1.10
2019-03-18T06:46:07.641Z,1.40
2019-03-18T06:47:07.638Z,1.00
2019-03-18T06:48:09.215Z,0.90
2019-03-18T06:49:07.609Z,1.00
2019-03-18T06:50:07.596Z,1.10
2019-03-18T06:51:07.591Z,1.10
2019-03-18T06:52:07.636Z,1.20
2019-03-18T06:53:07.573Z,1.00
2019-03-18T06:54:07.537Z,1.40
2019-03-18T06:55:07.556Z,1.40
2019-03-18T06:56:07.510Z,1.30
2019-03-18T06:57:07.510Z,0.90
2019-03-18T06:58:07.491Z,1.20
2019-03-18T06:59:07.504Z,1.30
2019-03-18T07:00:07.463Z,1.50
2019-03-18T07:01:07.527Z,1.40
2019-03-18T07:02:07.470Z,1.70
2019-03-18T07:03:07.460Z,1.40
2019-03-18T07:04:07.442Z,1.30
2019-03-18T07:05:07.430Z,1.40
2019-03-18T07:06:07.460Z,1.40
2019-03-18T07:07:07.419Z,1.50
2019-03-18T07:08:07.442Z,1.30
2019-03-18T07:09:07.415Z,1.40
2019-03-18T07:10:07.394Z,1.20
2019-03-18T07:11:07.359Z,1.40
2019-03-18T07:12:07.354Z,1.30
2019-03-18T07:13:07.349Z,1.60
2019-03-18T07:14:07.332Z,1.50
2019-03-18T07:15:07.671Z,1.40
2019-03-18T07:16:07.304Z,1.40
2019-03-18T07:17:07.319Z,1.40
2019-03-18T07:18:17.693Z,1.40
2019-03-18T07:19:07.375Z,1.60
2019-03-18T07:20:07.346Z,1.40
2019-03-18T07:21:07.438Z,1.60
2019-03-18T07:22:07.272Z,1.40
2019-03-18T07:23:07.216Z,1.20
2019-03-18T07:24:07.216Z,1.50
2019-03-18T07:25:07.223Z,1.30
2019-03-18T07:26:07.229Z,1.40
2019-03-18T07:27:07.214Z,1.30
2019-03-18T07:28:07.172Z,1.40
2019-03-18T07:29:07.174Z,1.20
2019-03-18T07:30:07.766Z,1.20
2019-03-18T07:31:07.316Z,1.30
2019-03-18T07:32:07.127Z,1.50
2019-03-18T07:33:07.169Z,1.30
2019-03-18T07:34:07.093Z,1.40
2019-03-18T07:35:07.108Z,1.50
2019-03-18T07:36:07.130Z,1.20
2019-03-18T07:37:07.119Z,1.40
2019-03-18T07:38:07.058Z,1.30
2019-03-18T07:39:07.071Z,1.30
2019-03-18T07:40:07.030Z,1.00
2019-03-18T07:41:07.031Z,1.20
2019-03-18T07:42:07.020Z,1.70
2019-03-18T07:43:06.999Z,1.40
2019-03-18T07:44:07.008Z,1.20
2019-03-18T07:45:07.560Z,1.40
2019-03-18T07:46:07.019Z,1.30
2019-03-18T07:47:07.440Z,1.50
2019-03-18T07:48:06.951Z,1.20
2019-03-18T07:49:06.987Z,1.40
2019-03-18T07:50:06.930Z,1.20
2019-03-18T07:51:06.911Z,1.50
2019-03-18T07:52:06.907Z,1.30
2019-03-18T07:53:06.918Z,1.30
2019-03-18T07:54:06.919Z,1.60
2019-03-18T07:55:06.998Z,1.60
2019-03-18T07:56:06.880Z,1.30
2019-03-18T07:57:06.859Z,1.30
2019-03-18T07:58:06.865Z,1.70
2019-03-18T07:59:06.947Z,1.20
2019-03-18T08:00:06.966Z,1.20
2019-03-18T08:01:06.810Z,1.60
2019-03-18T08:02:06.794Z,1.30
2019-03-18T08:03:06.809Z,1.50
2019-03-18T08:04:06.771Z,1.20
2019-03-18T08:05:06.767Z,1.20
2019-03-18T08:06:06.793Z,1.40
2019-03-18T08:07:06.769Z,1.50
2019-03-18T08:08:06.744Z,1.30
2019-03-18T08:09:06.716Z,1.00
2019-03-18T08:10:06.781Z,1.60
2019-03-18T08:11:06.687Z,1.30
2019-03-18T08:12:06.699Z,1.30
2019-03-18T08:13:06.684Z,1.40
2019-03-18T08:14:06.701Z,1.20
2019-03-18T08:15:06.656Z,1.60
2019-03-18T08:16:06.633Z,1.30
2019-03-18T08:17:06.657Z,1.20
2019-03-18T08:18:06.632Z,1.60
2019-03-18T08:19:06.595Z,1.40
2019-03-18T08:20:06.605Z,1.40
2019-03-18T08:21:06.600Z,1.10
2019-03-18T08:22:06.609Z,1.30
2019-03-18T08:23:06.578Z,1.40
2019-03-18T08:24:06.586Z,1.30
2019-03-18T08:25:06.737Z,1.50
2019-03-18T08:26:06.537Z,1.40
2019-03-18T08:27:06.515Z,1.30
2019-03-18T08:28:06.506Z,1.20
2019-03-18T08:29:06.532Z,1.40
2019-03-18T08:30:06.482Z,1.10
2019-03-18T08:31:06.476Z,1.40
2019-03-18T08:32:06.483Z,1.40
2019-03-18T08:33:06.555Z,1.40
2019-03-18T08:34:06.443Z,1.10
2019-03-18T08:35:06.424Z,1.80
2019-03-18T08:36:06.412Z,1.60
2019-03-18T08:37:06.421Z,1.20
2019-03-18T08:38:06.417Z,1.30
2019-03-18T08:39:06.395Z,1.40
2019-03-18T08:40:06.436Z,1.50
2019-03-18T08:41:06.421Z,1.50
2019-03-18T08:42:06.345Z,1.40
2019-03-18T08:43:06.375Z,1.80
2019-03-18T08:44:06.326Z,1.70
2019-03-18T08:45:06.318Z,2.00
2019-03-18T08:46:06.345Z,1.60
2019-03-18T08:47:06.344Z,1.40
2019-03-18T08:48:06.297Z,1.20
2019-03-18T08:49:06.311Z,1.40
2019-03-18T08:50:06.271Z,1.80
2019-03-18T08:51:06.706Z,1.90
2019-03-18T08:52:06.270Z,1.80
2019-03-18T08:53:06.295Z,1.40
2019-03-18T08:54:06.793Z,1.50
2019-03-18T08:55:07.752Z,1.90
2019-03-18T08:56:07.202Z,1.60
2019-03-18T08:57:06.204Z,1.50
2019-03-18T08:58:06.663Z,1.40
2019-03-18T08:59:06.182Z,1.60
2019-03-18T09:00:06.201Z,1.40
2019-03-18T09:01:06.150Z,1.80
2019-03-18T09:02:06.136Z,1.70
2019-03-18T09:03:06.444Z,1.40
2019-03-18T09:04:06.135Z,1.20
2019-03-18T09:05:06.098Z,1.70
2019-03-18T09:06:06.089Z,1.20
2019-03-18T09:07:06.078Z,1.40
2019-03-18T09:08:06.072Z,1.50
2019-03-18T09:09:06.135Z,1.20
2019-03-18T09:10:06.121Z,1.40
2019-03-18T09:11:06.032Z,1.20
2019-03-18T09:12:06.023Z,1.50
2019-03-18T09:13:06.000Z,1.60
2019-03-18T09:14:06.021Z,1.50
2019-03-18T09:15:05.989Z,1.20
2019-03-18T09:16:06.016Z,1.30
2019-03-18T09:17:05.967Z,1.40
2019-03-18T09:18:05.976Z,1.60
2019-03-18T09:19:09.047Z,1.40
2019-03-18T09:20:05.954Z,1.30
2019-03-18T09:21:05.913Z,1.20
2019-03-18T09:22:05.940Z,1.30
2019-03-18T09:23:05.899Z,1.20
2019-03-18T09:24:05.928Z,1.30
2019-03-18T09:25:05.897Z,1.30
2019-03-18T09:26:05.874Z,1.50
2019-03-18T09:27:06.053Z,1.30
2019-03-18T09:28:05.872Z,1.30
2019-03-18T09:29:05.885Z,2.00
2019-03-18T09:30:05.895Z,1.40
2019-03-18T09:31:05.933Z,1.10
2019-03-18T09:32:05.811Z,1.30
2019-03-18T09:33:05.822Z,1.70
2019-03-18T09:34:05.784Z,1.50
2019-03-18T09:35:05.783Z,1.30
2019-03-18T09:36:05.759Z,2.20
2019-03-18T09:37:05.767Z,1.90
2019-03-18T09:38:05.763Z,1.40
2019-03-18T09:39:05.754Z,1.20
2019-03-18T09:40:06.121Z,1.50
2019-03-18T09:41:05.709Z,1.20
2019-03-18T09:42:05.713Z,1.40
2019-03-18T09:43:05.702Z,1.50
2019-03-18T09:44:05.829Z,1.40
2019-03-18T09:45:05.659Z,1.10
2019-03-18T09:46:05.642Z,1.40
2019-03-18T09:47:05.767Z,1.40
2019-03-18T09:48:05.643Z,1.40
2019-03-18T09:49:05.621Z,1.50
2019-03-18T09:50:05.615Z,1.50
2019-03-18T09:51:09.656Z,1.20
2019-03-18T09:52:05.584Z,1.10
2019-03-18T09:53:05.623Z,1.20
2019-03-18T09:54:05.580Z,1.50
2019-03-18T09:55:05.566Z,1.10
2019-03-18T09:56:05.566Z,1.10
2019-03-18T09:57:05.542Z,1.20
2019-03-18T09:58:05.620Z,1.10
2019-03-18T09:59:05.523Z,1.30
2019-03-18T10:00:07.566Z,1.60
2019-03-18T10:01:05.495Z,1.20
2019-03-18T10:02:05.506Z,1.10
2019-03-18T10:03:05.477Z,1.10
2019-03-18T10:04:05.458Z,1.10
2019-03-18T10:05:05.558Z,1.00
2019-03-18T10:06:05.434Z,1.20
2019-03-18T10:07:05.428Z,0.90
2019-03-18T10:08:05.408Z,1.10
2019-03-18T10:09:05.419Z,1.10
2019-03-18T10:10:05.420Z,1.20
2019-03-18T10:11:05.439Z,1.00
2019-03-18T10:12:05.397Z,1.30
2019-03-18T10:13:05.363Z,1.30
2019-03-18T10:14:05.346Z,1.30
2019-03-18T10:15:05.328Z,1.20
2019-03-18T10:16:05.392Z,1.00
2019-03-18T10:17:09.832Z,1.10
2019-03-18T10:18:05.317Z,1.40
2019-03-18T10:19:05.299Z,1.00
2019-03-18T10:20:05.611Z,1.10
2019-03-18T10:21:05.664Z,1.20
2019-03-18T10:22:05.250Z,0.80
2019-03-18T10:23:05.244Z,1.10
2019-03-18T10:24:05.509Z,1.00
2019-03-18T10:25:05.223Z,1.10
2019-03-18T10:26:05.223Z,1.10
2019-03-18T10:27:05.193Z,1.20
2019-03-18T10:28:05.183Z,1.00
2019-03-18T10:29:05.197Z,1.20
2019-03-18T10:30:05.205Z,1.30
2019-03-18T10:31:05.138Z,1.10
2019-03-18T10:32:05.140Z,1.00
2019-03-18T10:33:05.145Z,1.30
2019-03-18T10:34:05.158Z,1.00
2019-03-18T10:35:05.103Z,1.10
2019-03-18T10:36:05.114Z,1.30
2019-03-18T10:37:05.105Z,1.30
2019-03-18T10:38:05.086Z,1.10
2019-03-18T10:39:05.072Z,1.20
2019-03-18T10:40:05.092Z,1.10
2019-03-18T10:41:05.041Z,1.60
2019-03-18T10:42:05.041Z,1.50
2019-03-18T10:43:05.027Z,1.30
2019-03-18T10:44:05.023Z,1.50
2019-03-18T10:45:05.418Z,1.80
2019-03-18T10:46:05.931Z,1.30
2019-03-18T10:47:04.972Z,1.40
2019-03-18T10:48:04.994Z,1.50
2019-03-18T10:49:05.139Z,1.40
2019-03-18T10:50:04.983Z,1.20
2019-03-18T10:51:05.417Z,1.20
2019-03-18T10:52:04.919Z,1.20
2019-03-18T10:53:04.965Z,1.30
2019-03-18T10:54:04.944Z,1.40
2019-03-18T10:55:04.915Z,1.50
2019-03-18T10:56:08.154Z,1.60
2019-03-18T10:57:05.003Z,1.30
2019-03-18T10:58:04.892Z,1.60
2019-03-18T10:59:05.038Z,1.00
2019-03-18T11:00:04.836Z,1.50
2019-03-18T11:01:04.827Z,1.10
2019-03-18T11:02:04.914Z,1.00
2019-03-18T11:03:04.816Z,1.80
2019-03-18T11:04:04.798Z,1.40
2019-03-18T11:05:04.903Z,1.50
2019-03-18T11:06:04.862Z,1.40
2019-03-18T11:07:04.747Z,1.20
2019-03-18T11:08:04.749Z,1.20
2019-03-18T11:09:04.748Z,1.70
2019-03-18T11:10:04.731Z,1.20
2019-03-18T11:11:04.705Z,1.10
2019-03-18T11:12:04.786Z,1.50
2019-03-18T11:13:04.719Z,1.20
2019-03-18T11:14:04.682Z,1.00
2019-03-18T11:15:04.693Z,1.80
2019-03-18T11:16:04.769Z,1.20
2019-03-18T11:17:04.727Z,1.70
2019-03-18T11:18:04.670Z,1.20
2019-03-18T11:19:04.660Z,1.00
2019-03-18T11:20:04.622Z,1.40
2019-03-18T11:21:04.616Z,1.10
2019-03-18T11:22:04.620Z,1.20
2019-03-18T11:23:04.907Z,1.30
2019-03-18T11:24:04.604Z,1.40
2019-03-18T11:25:04.594Z,1.40
2019-03-18T11:26:04.556Z,1.30
2019-03-18T11:27:04.617Z,1.60
2019-03-18T11:28:04.522Z,1.30
2019-03-18T11:29:05.815Z,1.30
2019-03-18T11:30:04.591Z,1.20
2019-03-18T11:31:04.524Z,1.20
2019-03-18T11:32:04.477Z,1.20
2019-03-18T11:33:04.472Z,1.50
2019-03-18T11:34:04.514Z,1.10
2019-03-18T11:35:04.459Z,1.20
2019-03-18T11:36:04.499Z,1.00
2019-03-18T11:37:04.422Z,1.50
2019-03-18T11:38:04.413Z,1.10
2019-03-18T11:39:04.492Z,1.30
2019-03-18T11:40:04.614Z,1.60
2019-03-18T11:41:04.409Z,1.40
2019-03-18T11:42:04.386Z,2.00
2019-03-18T11:43:04.358Z,1.80
2019-03-18T11:44:04.355Z,1.60
2019-03-18T11:45:04.351Z,1.30
2019-03-18T11:46:04.366Z,1.30
2019-03-18T11:47:04.712Z,1.50
2019-03-18T11:48:04.323Z,1.10
2019-03-18T11:49:04.395Z,1.40
2019-03-18T11:50:11.165Z,1.30
2019-03-18T11:51:04.264Z,1.30
2019-03-18T11:52:04.249Z,1.70
2019-03-18T11:53:13.830Z,1.50
2019-03-18T11:54:04.244Z,1.20
2019-03-18T11:55:04.279Z,1.70
2019-03-18T11:56:04.265Z,1.10
2019-03-18T11:57:04.235Z,1.10
2019-03-18T11:58:04.196Z,1.30
2019-03-18T11:59:04.174Z,1.30
2019-03-18T12:00:04.388Z,1.20
2019-03-18T12:01:04.190Z,1.00
2019-03-18T12:02:04.173Z,2.00
2019-03-18T12:03:04.187Z,1.70
2019-03-18T12:04:04.705Z,1.60
2019-03-18T12:05:04.160Z,1.30
2019-03-18T12:06:04.129Z,2.00
2019-03-18T12:07:04.121Z,1.30
2019-03-18T12:08:04.083Z,1.10
2019-03-18T12:09:04.072Z,1.40
2019-03-18T12:10:04.094Z,1.20
2019-03-18T12:11:04.075Z,1.30
2019-03-18T12:12:04.040Z,1.20
2019-03-18T12:13:04.064Z,0.90
2019-03-18T12:14:04.049Z,1.00
2019-03-18T12:15:04.007Z,1.10
2019-03-18T12:16:03.996Z,1.40
2019-03-18T12:17:03.984Z,1.40
2019-03-18T12:18:03.998Z,1.30
2019-03-18T12:19:04.073Z,1.20
2019-03-18T12:20:04.028Z,1.50
2019-03-18T12:21:03.983Z,1.00
2019-03-18T12:22:04.080Z,1.20
2019-03-18T12:23:03.959Z,1.10
2019-03-18T12:24:03.920Z,1.20
2019-03-18T12:25:03.947Z,1.20
2019-03-18T12:26:03.924Z,1.30
2019-03-18T12:27:03.871Z,1.30
2019-03-18T12:28:05.423Z,1.40
2019-03-18T12:29:03.869Z,1.40
2019-03-18T12:30:03.845Z,1.40
2019-03-18T12:31:03.841Z,1.10
2019-03-18T12:32:03.855Z,1.60
2019-03-18T12:33:04.735Z,1.40
2019-03-18T12:34:03.844Z,1.40
2019-03-18T12:35:03.815Z,1.30
2019-03-18T12:36:04.029Z,1.90
2019-03-18T12:37:03.777Z,1.20
2019-03-18T12:38:03.755Z,1.30
2019-03-18T12:39:04.202Z,1.20
2019-03-18T12:40:05.422Z,1.50
2019-03-18T12:42:34.638Z,1.40
2019-03-18T12:43:16.271Z,1.20
2019-03-18T12:44:03.721Z,1.20
2019-03-18T12:45:03.705Z,1.00
2019-03-18T12:46:03.693Z,1.20
2019-03-18T12:47:03.699Z,1.20
2019-03-18T12:48:03.680Z,1.50
2019-03-18T12:49:03.633Z,1.10
2019-03-18T12:50:03.648Z,1.10
2019-03-18T12:51:03.606Z,1.10
2019-03-18T12:52:03.632Z,1.40
2019-03-18T12:53:03.624Z,1.20
2019-03-18T12:54:03.590Z,1.20
2019-03-18T12:55:03.601Z,1.40
2019-03-18T12:56:03.564Z,1.30
2019-03-18T12:58:02.564Z,1.60
2019-03-18T12:59:03.536Z,1.30
2019-03-18T13:00:03.554Z,1.40
2019-03-18T13:01:12.625Z,1.80
2019-03-18T13:03:02.508Z,1.30
2019-03-18T13:04:03.526Z,1.20
2019-03-18T13:05:03.471Z,1.30
2019-03-18T13:06:03.444Z,1.00
2019-03-18T13:07:03.488Z,1.20
2019-03-18T13:08:03.511Z,1.40
2019-03-18T13:09:03.434Z,1.00
2019-03-18T13:10:03.444Z,1.30
2019-03-18T13:11:03.435Z,1.40
2019-03-18T13:12:03.425Z,1.40
2019-03-18T13:13:03.384Z,1.10
2019-03-18T13:14:03.467Z,1.40
2019-03-18T13:15:03.745Z,1.10
2019-03-18T13:16:03.340Z,1.50
2019-03-18T13:17:03.339Z,1.20
2019-03-18T13:18:03.326Z,1.00
2019-03-18T13:19:03.332Z,0.90
2019-03-18T13:20:03.299Z,1.20
2019-03-18T13:21:08.238Z,1.10